Time;durP1;ratioP1;P1;durP2;ratioP2;P2;SDS_P1;SDS_P2;PMS_P1;PMS_P2;Temp;Humidity;BMP_temperature;BMP_pressure;BME280_temperature;BME280_humidity;BME280_pressure;Samples;Min_cycle;Max_cycle;Signal;HPM_P1;HPM_P2
2022/03/09 04:01:59;;;;;;;14.70;12.33;;;-4.50;99.90;;;;;;5196053;23;20230;-75
2022/03/09 04:04:25;;;;;;;12.30;10.93;;;-4.40;99.90;;;;;;4934354;29;20186;-74
2022/03/09 04:06:50;;;;;;;12.43;11.10;;;-4.40;99.90;;;;;;4934773;29;20178;-75
2022/03/09 04:09:17;;;;;;;13.40;12.00;;;-4.60;99.90;;;;;;4935330;29;20218;-75
2022/03/09 04:11:42;;;;;;;17.43;13.03;;;-4.60;99.90;;;;;;4935600;29;20213;-75
2022/03/09 04:14:08;;;;;;;17.47;13.70;;;-4.70;99.90;;;;;;4956611;23;20231;-77
2022/03/09 04:16:34;;;;;;;18.60;13.23;;;-4.60;99.90;;;;;;4937702;29;20249;-77
2022/03/09 04:19:00;;;;;;;14.50;10.83;;;-4.60;99.90;;;;;;4936393;29;20182;-77
2022/03/09 04:21:26;;;;;;;15.63;12.63;;;-4.60;99.90;;;;;;4934543;29;20178;-77
2022/03/09 04:23:51;;;;;;;14.87;12.33;;;-4.60;99.90;;;;;;4934212;29;20210;-77
2022/03/09 04:26:17;;;;;;;17.90;13.10;;;-4.50;99.90;;;;;;4934837;29;20544;-76
2022/03/09 04:28:43;;;;;;;18.03;13.63;;;-4.50;99.90;;;;;;4932859;29;20185;-77
2022/03/09 04:31:09;;;;;;;15.10;13.20;;;-4.60;99.90;;;;;;4925458;29;20278;-77
2022/03/09 04:33:35;;;;;;;15.63;11.90;;;-4.60;99.90;;;;;;4934573;29;20265;-75
2022/03/09 04:36:00;;;;;;;15.27;13.47;;;-4.60;99.90;;;;;;4936229;29;20199;-77
2022/03/09 04:38:27;;;;;;;15.30;13.13;;;-4.60;99.90;;;;;;4935250;29;20186;-76
2022/03/09 04:40:53;;;;;;;16.70;14.33;;;-4.60;99.90;;;;;;4938008;29;20182;-73
2022/03/09 04:43:19;;;;;;;12.07;11.00;;;-4.70;99.90;;;;;;4943593;29;20197;-73
2022/03/09 04:45:45;;;;;;;16.13;12.57;;;-4.70;99.90;;;;;;4940650;29;20206;-75
2022/03/09 04:48:11;;;;;;;15.13;13.20;;;-4.70;99.90;;;;;;4940394;29;20210;-75
2022/03/09 04:50:37;;;;;;;16.60;13.63;;;-4.70;99.90;;;;;;4943995;29;20217;-74
2022/03/09 04:53:02;;;;;;;17.67;13.27;;;-4.70;99.90;;;;;;4944087;29;20483;-77
2022/03/09 04:55:28;;;;;;;17.80;12.37;;;-4.70;99.90;;;;;;4941730;29;20291;-75
2022/03/09 04:57:54;;;;;;;20.30;13.13;;;-4.80;99.90;;;;;;4932569;29;20193;-75
2022/03/09 05:00:20;;;;;;;16.67;13.23;;;-4.80;99.90;;;;;;4934691;29;20185;-75
2022/03/09 05:02:46;;;;;;;13.80;11.33;;;-4.80;99.90;;;;;;4932932;29;20182;-77
2022/03/09 05:05:12;;;;;;;13.67;12.13;;;-4.90;99.90;;;;;;4933290;29;20206;-75
2022/03/09 05:07:41;;;;;;;17.43;13.50;;;-5.00;99.90;;;;;;4933574;29;20190;-78
2022/03/09 05:10:11;;;;;;;19.93;13.30;;;-5.00;99.90;;;;;;4932590;29;20214;-75
2022/03/09 05:12:37;;;;;;;15.13;12.87;;;-5.00;99.90;;;;;;4934246;29;20190;-75
2022/03/09 05:15:06;;;;;;;14.67;13.17;;;-5.00;99.90;;;;;;4930223;29;20214;-75
2022/03/09 05:17:32;;;;;;;15.57;13.30;;;-5.00;99.90;;;;;;4930324;29;20186;-75
2022/03/09 05:19:58;;;;;;;14.40;12.80;;;-5.00;99.90;;;;;;4933723;29;20193;-76
2022/03/09 05:22:24;;;;;;;16.33;13.40;;;-5.00;99.90;;;;;;4933906;29;20193;-72
2022/03/09 05:24:50;;;;;;;23.00;13.70;;;-4.90;99.90;;;;;;4933297;29;20666;-71
2022/03/09 05:27:16;;;;;;;17.07;13.60;;;-4.90;99.90;;;;;;4932201;29;20655;-74
2022/03/09 05:29:41;;;;;;;18.33;15.97;;;-4.90;99.90;;;;;;4936027;29;20682;-72
2022/03/09 05:32:08;;;;;;;16.40;13.63;;;-4.80;99.90;;;;;;4936027;29;20190;-73
2022/03/09 05:34:33;;;;;;;16.90;13.23;;;-4.90;99.90;;;;;;4933939;29;20208;-73
2022/03/09 05:36:59;;;;;;;14.97;13.33;;;-4.90;99.90;;;;;;4932013;29;20186;-72
2022/03/09 05:39:25;;;;;;;15.90;13.67;;;-4.80;99.90;;;;;;4933558;29;20198;-72
2022/03/09 05:41:51;;;;;;;19.57;13.30;;;-4.90;99.90;;;;;;4932389;29;20597;-74
2022/03/09 05:44:17;;;;;;;18.13;14.07;;;-4.90;99.90;;;;;;4932283;29;20671;-72
2022/03/09 05:46:42;;;;;;;17.43;14.20;;;-4.80;99.90;;;;;;4931706;29;20555;-72
2022/03/09 05:49:08;;;;;;;20.97;14.43;;;-4.80;99.90;;;;;;4932168;29;20278;-73
2022/03/09 05:51:34;;;;;;;19.23;14.00;;;-4.80;99.90;;;;;;4932207;29;20209;-73
2022/03/09 05:54:00;;;;;;;17.57;14.10;;;-4.80;99.90;;;;;;4932703;29;20254;-73
2022/03/09 05:56:26;;;;;;;18.30;13.87;;;-4.80;99.90;;;;;;4931327;29;20550;-72
2022/03/09 05:58:51;;;;;;;18.07;14.73;;;-4.60;99.90;;;;;;4931191;29;20182;-73
2022/03/09 06:01:17;;;;;;;14.40;12.87;;;-4.70;99.90;;;;;;4931978;29;20198;-72
2022/03/09 06:03:43;;;;;;;13.97;12.13;;;-4.70;99.90;;;;;;4932008;29;20187;-73
2022/03/09 06:06:09;;;;;;;26.10;14.97;;;-4.70;99.90;;;;;;4933120;29;20323;-73
2022/03/09 06:08:34;;;;;;;17.30;14.67;;;-4.70;99.90;;;;;;4932586;29;20186;-73
2022/03/09 06:11:00;;;;;;;17.47;14.90;;;-4.60;99.90;;;;;;4931600;29;20292;-73
2022/03/09 06:13:26;;;;;;;17.17;15.37;;;-4.60;99.90;;;;;;4933583;29;20182;-73
2022/03/09 06:15:52;;;;;;;17.13;13.97;;;-4.50;99.90;;;;;;4931416;29;20210;-73
2022/03/09 06:18:17;;;;;;;17.93;12.63;;;-4.50;99.90;;;;;;4932020;29;20182;-72
2022/03/09 06:20:43;;;;;;;14.93;13.40;;;-4.40;99.90;;;;;;4931978;29;20190;-74
2022/03/09 06:23:09;;;;;;;15.97;14.20;;;-4.30;99.90;;;;;;4936676;29;20182;-74
2022/03/09 06:25:34;;;;;;;18.63;13.57;;;-4.20;99.90;;;;;;4923419;29;20206;-75
2022/03/09 06:28:00;;;;;;;19.17;14.90;;;-4.10;99.90;;;;;;4924997;29;20219;-74
2022/03/09 06:30:27;;;;;;;14.80;13.33;;;-4.00;99.90;;;;;;4926000;29;20317;-73
2022/03/09 06:32:53;;;;;;;27.57;14.60;;;-3.80;99.90;;;;;;4936635;29;20186;-73
2022/03/09 06:35:19;;;;;;;15.33;13.00;;;-3.70;99.90;;;;;;4936804;29;20199;-73
2022/03/09 06:37:45;;;;;;;15.97;13.93;;;-3.60;99.90;;;;;;4934709;29;20616;-72
2022/03/09 06:40:12;;;;;;;17.90;12.93;;;-3.50;99.90;;;;;;4937684;29;20182;-72
2022/03/09 06:42:38;;;;;;;25.40;14.70;;;-3.40;99.90;;;;;;4943662;29;20187;-73
2022/03/09 06:45:05;;;;;;;18.30;15.20;;;-3.30;99.90;;;;;;4936621;29;20238;-73
2022/03/09 06:47:32;;;;;;;18.93;13.70;;;-3.20;99.90;;;;;;4936303;29;20209;-73
2022/03/09 06:49:58;;;;;;;17.70;14.30;;;-3.10;99.90;;;;;;4936681;29;20213;-74
2022/03/09 06:52:24;;;;;;;28.53;14.97;;;-3.00;99.90;;;;;;4931424;29;20270;-74
2022/03/09 06:54:50;;;;;;;21.20;13.23;;;-2.80;99.90;;;;;;4917514;29;20390;-74
2022/03/09 06:57:16;;;;;;;24.20;13.63;;;-2.60;99.90;;;;;;4915733;29;20536;-73
2022/03/09 06:59:44;;;;;;;18.67;14.93;;;-2.40;99.90;;;;;;4918863;29;20195;-75
2022/03/09 07:02:10;;;;;;;20.37;15.93;;;-2.20;99.90;;;;;;4935931;29;20619;-74
2022/03/09 07:04:36;;;;;;;19.17;16.47;;;-2.00;99.90;;;;;;4938443;29;20274;-74
2022/03/09 07:07:02;;;;;;;20.30;13.13;;;-1.80;99.90;;;;;;4920281;29;20191;-75
2022/03/09 07:09:27;;;;;;;18.67;15.77;;;-1.40;99.90;;;;;;4934508;29;20254;-74
2022/03/09 07:11:53;;;;;;;18.87;12.40;;;-0.80;99.90;;;;;;4935729;29;20555;-72
2022/03/09 07:14:20;;;;;;;19.23;13.17;;;-0.20;99.90;;;;;;4926548;29;20218;-72
2022/03/09 07:16:46;;;;;;;27.03;24.50;;;0.50;99.90;;;;;;4917400;29;20186;-72
2022/03/09 07:19:13;;;;;;;16.57;14.77;;;1.10;99.90;;;;;;4928517;29;20563;-71
2022/03/09 07:21:38;;;;;;;15.93;13.40;;;1.60;99.90;;;;;;4935396;29;20190;-73
2022/03/09 07:24:05;;;;;;;14.20;12.70;;;2.00;99.90;;;;;;4935346;29;20202;-73
2022/03/09 07:26:30;;;;;;;15.47;12.10;;;2.60;99.90;;;;;;4937219;29;20174;-73
2022/03/09 07:28:56;;;;;;;13.77;12.33;;;3.00;99.90;;;;;;4935136;29;20237;-73
2022/03/09 07:31:22;;;;;;;15.47;13.87;;;3.50;99.90;;;;;;4936123;29;20206;-73
2022/03/09 07:33:48;;;;;;;19.63;14.60;;;3.80;99.90;;;;;;4935673;29;20177;-73
2022/03/09 07:36:13;;;;;;;20.90;12.43;;;4.00;99.90;;;;;;4936231;29;20174;-74
2022/03/09 07:38:40;;;;;;;13.63;11.07;;;4.10;99.90;;;;;;4936150;29;20781;-74
2022/03/09 07:41:06;;;;;;;14.77;12.00;;;4.20;99.90;;;;;;4934811;29;20667;-74
2022/03/09 07:43:32;;;;;;;15.17;11.80;;;4.30;99.90;;;;;;4936434;29;20670;-72
2022/03/09 07:45:58;;;;;;;14.90;12.27;;;4.50;99.90;;;;;;4936067;29;20576;-73
2022/03/09 07:48:23;;;;;;;16.07;11.73;;;4.70;99.90;;;;;;4934525;29;20596;-74
2022/03/09 07:50:49;;;;;;;15.07;12.67;;;4.80;99.90;;;;;;4934565;29;20220;-74
2022/03/09 07:53:15;;;;;;;15.17;12.03;;;4.90;99.90;;;;;;4935577;29;20214;-73
2022/03/09 07:55:41;;;;;;;15.80;12.27;;;5.10;99.90;;;;;;4935512;29;20777;-73
2022/03/09 07:58:06;;;;;;;16.30;13.50;;;5.40;99.90;;;;;;4917891;29;20714;-74
2022/03/09 08:00:32;;;;;;;15.50;13.97;;;5.70;99.70;;;;;;4924501;29;20670;-73
2022/03/09 08:02:58;;;;;;;14.97;13.00;;;6.00;98.10;;;;;;4934420;29;20182;-74
2022/03/09 08:05:24;;;;;;;15.30;13.47;;;6.10;97.20;;;;;;4934700;29;20574;-74
2022/03/09 08:07:49;;;;;;;15.57;13.97;;;6.40;96.40;;;;;;4917873;29;20195;-74
2022/03/09 08:10:15;;;;;;;15.40;13.90;;;6.80;95.00;;;;;;4922976;29;20293;-75
2022/03/09 08:12:41;;;;;;;16.20;13.73;;;6.80;94.40;;;;;;4935553;29;20284;-73
2022/03/09 08:15:07;;;;;;;16.30;14.17;;;6.80;94.50;;;;;;4934051;29;20264;-75
2022/03/09 08:17:33;;;;;;;14.13;12.07;;;6.90;93.80;;;;;;4934828;29;20182;-74
2022/03/09 08:19:59;;;;;;;15.43;11.83;;;7.00;92.60;;;;;;4935167;29;20185;-74
2022/03/09 08:22:25;;;;;;;13.13;11.80;;;7.10;92.70;;;;;;4935504;29;20216;-75
2022/03/09 08:24:50;;;;;;;14.27;12.73;;;7.20;92.30;;;;;;4935561;29;20210;-74
2022/03/09 08:27:16;;;;;;;15.77;12.57;;;7.10;92.60;;;;;;4934464;29;20196;-74
2022/03/09 08:29:43;;;;;;;12.23;10.90;;;7.10;92.20;;;;;;4932891;29;20210;-74
2022/03/09 08:32:09;;;;;;;12.50;11.17;;;7.30;92.00;;;;;;4915995;29;20191;-74
2022/03/09 08:34:34;;;;;;;13.33;11.37;;;7.60;91.40;;;;;;4916945;29;20207;-74
2022/03/09 08:37:00;;;;;;;13.70;11.77;;;8.10;90.60;;;;;;4917524;29;20186;-74
2022/03/09 08:39:26;;;;;;;14.90;11.93;;;8.20;89.50;;;;;;4916356;29;20194;-74
2022/03/09 08:41:52;;;;;;;14.73;11.50;;;8.40;86.60;;;;;;4934537;29;20639;-75
2022/03/09 08:44:20;;;;;;;11.90;10.70;;;8.70;84.40;;;;;;4934749;29;20233;-74
2022/03/09 08:46:46;;;;;;;14.10;11.63;;;8.90;79.70;;;;;;4926741;29;20586;-74
2022/03/09 08:49:11;;;;;;;15.57;11.90;;;9.20;78.10;;;;;;4915820;29;20179;-74
2022/03/09 08:51:37;;;;;;;13.27;11.70;;;9.20;75.60;;;;;;4930976;29;20186;-75
2022/03/09 08:54:03;;;;;;;14.33;11.37;;;9.50;73.10;;;;;;4934525;29;20553;-74
2022/03/09 08:56:29;;;;;;;14.20;11.47;;;9.50;72.70;;;;;;4933716;29;20179;-74
2022/03/09 08:58:55;;;;;;;13.03;11.30;;;9.50;70.50;;;;;;4934549;29;20178;-73
2022/03/09 09:01:22;;;;;;;12.33;11.10;;;9.30;67.90;;;;;;4932727;29;20667;-73
2022/03/09 09:03:48;;;;;;;12.03;10.80;;;9.60;68.00;;;;;;4932848;29;20201;-72
2022/03/09 09:06:14;;;;;;;13.50;11.77;;;9.50;68.10;;;;;;4934475;29;20557;-73
2022/03/09 09:08:40;;;;;;;12.40;11.13;;;9.60;67.10;;;;;;4934267;29;20186;-73
2022/03/09 09:11:06;;;;;;;13.80;11.87;;;9.60;67.30;;;;;;4933522;29;20209;-74
2022/03/09 09:13:32;;;;;;;13.30;11.60;;;9.80;67.40;;;;;;4933001;29;20288;-73
2022/03/09 09:15:58;;;;;;;16.03;11.90;;;10.10;67.30;;;;;;4933247;29;20221;-73
2022/03/09 09:18:24;;;;;;;12.93;10.60;;;10.30;65.10;;;;;;4932792;29;20213;-73
2022/03/09 09:20:50;;;;;;;13.23;11.33;;;10.80;62.40;;;;;;4932703;29;20190;-74
2022/03/09 09:23:16;;;;;;;14.90;12.20;;;10.70;60.60;;;;;;4934219;29;20194;-73
2022/03/09 09:25:42;;;;;;;15.83;11.40;;;11.10;60.40;;;;;;4934056;29;20225;-74
2022/03/09 09:28:08;;;;;;;13.20;11.67;;;11.30;60.40;;;;;;4932568;29;20698;-76
2022/03/09 09:30:34;;;;;;;13.37;11.77;;;11.70;59.40;;;;;;4933442;29;20245;-74
2022/03/09 09:33:01;;;;;;;14.43;12.03;;;11.80;59.80;;;;;;4934014;29;20273;-74
2022/03/09 09:35:28;;;;;;;14.20;12.70;;;11.90;58.00;;;;;;4934124;29;20608;-74
2022/03/09 09:37:54;;;;;;;13.87;12.47;;;12.10;57.80;;;;;;4933976;29;20262;-73
2022/03/09 09:40:20;;;;;;;14.20;12.80;;;12.40;57.40;;;;;;4932330;29;20300;-72
2022/03/09 09:42:46;;;;;;;15.17;13.67;;;12.10;57.90;;;;;;4934442;29;20182;-74
2022/03/09 09:45:12;;;;;;;14.80;13.03;;;12.60;56.00;;;;;;4935250;29;20239;-73
2022/03/09 09:47:38;;;;;;;17.97;12.13;;;13.10;54.90;;;;;;4926757;29;20256;-73
2022/03/09 09:50:08;;;;;;;15.97;13.40;;;13.10;53.60;;;;;;4934202;29;20223;-72
2022/03/09 09:52:37;;;;;;;13.67;12.27;;;13.00;53.10;;;;;;4933748;29;20182;-73
2022/03/09 09:55:04;;;;;;;17.07;13.00;;;13.00;52.30;;;;;;4933942;29;20687;-72
2022/03/09 09:57:31;;;;;;;16.50;12.87;;;13.20;53.40;;;;;;4937585;29;20193;-73
2022/03/09 09:59:58;;;;;;;16.70;11.60;;;13.70;51.50;;;;;;4938922;29;20185;-73
2022/03/09 10:02:24;;;;;;;17.17;12.00;;;14.30;49.80;;;;;;4938091;29;20300;-73
2022/03/09 10:04:50;;;;;;;15.73;11.83;;;14.20;50.00;;;;;;4939525;29;20591;-73
2022/03/09 10:07:17;;;;;;;15.77;11.70;;;14.20;49.70;;;;;;4939381;29;20190;-73
2022/03/09 10:09:44;;;;;;;13.77;11.43;;;15.00;48.60;;;;;;4939235;29;20216;-73
2022/03/09 10:12:12;;;;;;;12.97;11.33;;;15.50;47.20;;;;;;4939703;29;20209;-74
2022/03/09 10:14:51;;;;;;;15.30;12.77;;;15.60;45.90;;;;;;4939683;29;20210;-74
2022/03/09 10:17:18;;;;;;;13.17;11.77;;;15.50;45.80;;;;;;4937526;29;20196;-73
2022/03/09 10:19:50;;;;;;;13.87;11.70;;;15.60;45.50;;;;;;4939801;29;20181;-73
2022/03/09 10:22:24;;;;;;;15.43;12.33;;;15.70;45.80;;;;;;4939858;29;20241;-73
2022/03/09 10:24:51;;;;;;;14.73;12.03;;;16.10;44.80;;;;;;4939649;29;20226;-73
2022/03/09 10:27:46;;;;;;;14.20;12.43;;;16.60;43.30;;;;;;4938625;29;20269;-73
2022/03/09 10:30:22;;;;;;;16.17;12.23;;;16.80;43.70;;;;;;4922753;29;20648;-72
2022/03/09 10:32:56;;;;;;;16.07;12.57;;;17.10;41.90;;;;;;4933202;29;20677;-74
2022/03/09 10:35:31;;;;;;;14.23;12.70;;;16.70;43.10;;;;;;4939288;29;20201;-74
2022/03/09 10:38:00;;;;;;;15.13;12.47;;;16.10;44.00;;;;;;4938827;29;20193;-74
2022/03/09 10:40:27;;;;;;;15.90;13.07;;;15.80;45.10;;;;;;4939788;29;20596;-74
2022/03/09 10:43:12;;;;;;;16.33;14.60;;;15.70;44.40;;;;;;4938460;29;20222;-74
2022/03/09 10:46:04;;;;;;;17.77;14.63;;;15.40;45.50;;;;;;4939831;29;20206;-73
2022/03/09 10:49:01;;;;;;;15.63;14.03;;;15.70;44.80;;;;;;4937186;29;20190;-74
2022/03/09 10:51:37;;;;;;;23.37;15.47;;;16.60;43.80;;;;;;4940227;29;20350;-73
2022/03/09 10:54:09;;;;;;;21.37;19.20;;;17.50;40.40;;;;;;4938683;29;20186;-73
2022/03/09 10:56:36;;;;;;;22.90;20.63;;;17.90;38.70;;;;;;4941033;29;20214;-73
2022/03/09 10:59:28;;;;;;;24.53;22.27;;;18.30;38.40;;;;;;4940278;29;20686;-72
2022/03/09 11:02:08;;;;;;;21.03;18.90;;;18.40;37.80;;;;;;4936004;29;20217;-73
2022/03/09 11:04:35;;;;;;;21.13;18.97;;;18.60;37.20;;;;;;4939172;29;20802;-72
2022/03/09 11:07:01;;;;;;;22.70;20.60;;;18.20;37.10;;;;;;4940469;29;20189;-73
2022/03/09 11:09:29;;;;;;;23.57;21.43;;;17.80;38.50;;;;;;4928491;29;20187;-74
2022/03/09 11:11:55;;;;;;;21.73;19.53;;;18.30;37.70;;;;;;4918354;29;20186;-72
2022/03/09 11:14:26;;;;;;;20.43;18.23;;;18.60;37.30;;;;;;4916230;29;20314;-73
2022/03/09 11:16:54;;;;;;;20.50;18.40;;;18.70;38.00;;;;;;4930830;29;20238;-73
2022/03/09 11:19:20;;;;;;;21.93;19.70;;;18.10;38.10;;;;;;4936114;29;20433;-71
2022/03/09 11:21:47;;;;;;;23.80;21.30;;;18.20;38.30;;;;;;4936272;29;20895;-72
2022/03/09 11:24:17;;;;;;;19.20;17.23;;;18.80;36.90;;;;;;4936384;29;20293;-72
2022/03/09 11:26:54;;;;;;;24.17;18.13;;;19.60;35.80;;;;;;4927764;29;20195;-72
2022/03/09 11:29:33;;;;;;;20.40;17.13;;;19.00;35.80;;;;;;4917341;29;20650;-72
2022/03/09 11:31:59;;;;;;;18.53;16.47;;;19.50;36.00;;;;;;4927695;29;20689;-71
2022/03/09 11:34:34;;;;;;;20.87;17.23;;;20.00;34.90;;;;;;4934917;29;20300;-72
2022/03/09 11:37:03;;;;;;;21.07;17.90;;;19.40;35.60;;;;;;4932672;29;20336;-72
2022/03/09 11:39:29;;;;;;;21.47;17.57;;;17.80;38.50;;;;;;4927947;29;20187;-73
2022/03/09 11:42:19;;;;;;;20.60;17.67;;;18.30;38.70;;;;;;4935744;29;20273;-73
2022/03/09 11:44:53;;;;;;;20.17;16.07;;;19.40;36.80;;;;;;4934433;29;20213;-73
2022/03/09 11:47:19;;;;;;;27.30;15.95;;;20.30;34.20;;;;;;4926542;29;20191;-73
2022/03/09 11:49:52;;;;;;;21.07;16.10;;;20.20;34.50;;;;;;4916716;29;20233;-70
2022/03/09 11:52:19;;;;;;;19.30;15.67;;;20.50;34.30;;;;;;4934152;29;20214;-71
2022/03/09 11:55:01;;;;;;;22.53;15.67;;;21.80;32.00;;;;;;4935730;29;20201;-70
2022/03/09 11:57:48;;;;;;;19.77;16.77;;;21.60;31.40;;;;;;4927398;29;20270;-73
2022/03/09 12:00:22;;;;;;;21.00;15.32;;;21.30;32.20;;;;;;4917658;29;20194;-70
2022/03/09 12:02:57;;;;;;;22.65;15.40;;;21.00;32.00;;;;;;4935763;29;20739;-70
2022/03/09 12:05:26;;;;;;;20.77;15.87;;;21.40;31.20;;;;;;4935695;29;20232;-71
2022/03/09 12:07:57;;;;;;;20.77;15.97;;;20.80;32.00;;;;;;4935152;29;20258;-70
2022/03/09 12:10:55;;;;;;;19.07;15.67;;;20.60;32.60;;;;;;4934956;29;20777;-73
2022/03/09 12:13:50;;;;;;;24.75;16.35;;;21.00;32.70;;;;;;4919514;29;20195;-71
2022/03/09 12:16:23;;;;;;;22.83;16.80;;;20.70;33.30;;;;;;4918174;29;20257;-72
2022/03/09 12:19:00;;;;;;;22.90;17.60;;;19.90;34.30;;;;;;4934647;29;20643;-72
2022/03/09 12:21:26;;;;;;;19.33;15.80;;;19.40;35.00;;;;;;4933944;29;20186;-71
2022/03/09 12:24:04;;;;;;;19.97;16.23;;;19.50;35.40;;;;;;4933939;29;20185;-71
2022/03/09 12:26:46;;;;;;;23.33;18.00;;;19.40;34.90;;;;;;4931289;29;20620;-71
2022/03/09 12:29:21;;;;;;;22.38;16.77;;;19.20;35.10;;;;;;4915932;29;20187;-71
2022/03/09 12:32:02;;;;;;;20.47;16.53;;;19.20;34.30;;;;;;4928883;29;20190;-72
2022/03/09 12:34:31;;;;;;;22.83;17.33;;;19.60;34.10;;;;;;4925370;29;20206;-71
2022/03/09 12:36:57;;;;;;;22.37;16.80;;;20.40;32.90;;;;;;4915915;29;20183;-71
2022/03/09 12:39:24;;;;;;;22.23;17.15;;;21.00;31.90;;;;;;4916080;29;20255;-72
2022/03/09 12:41:58;;;;;;;21.33;16.85;;;22.20;30.60;;;;;;4928658;29;20558;-72
2022/03/09 12:44:24;;;;;;;20.42;15.77;;;21.60;30.50;;;;;;4934937;29;20240;-72
2022/03/09 12:46:52;;;;;;;22.33;18.07;;;22.10;30.50;;;;;;4926062;29;20190;-72
2022/03/09 12:49:37;;;;;;;20.05;16.50;;;23.90;27.90;;;;;;4918594;29;20190;-72
2022/03/09 12:52:09;;;;;;;24.10;19.25;;;23.10;28.20;;;;;;4934391;29;20197;-72
2022/03/09 12:54:36;;;;;;;21.13;17.55;;;23.30;27.70;;;;;;4933668;29;20203;-71
2022/03/09 12:57:26;;;;;;;23.63;18.00;;;23.00;27.60;;;;;;4934308;29;20171;-72
2022/03/09 13:00:10;;;;;;;21.98;17.50;;;22.70;28.80;;;;;;4927479;29;20203;-73
2022/03/09 13:02:40;;;;;;;21.98;18.70;;;22.00;29.60;;;;;;4934194;29;20260;-72
2022/03/09 13:05:08;;;;;;;20.88;16.20;;;22.00;28.90;;;;;;4934013;29;20587;-74
2022/03/09 13:07:34;;;;;;;19.88;15.45;;;23.30;27.80;;;;;;4930024;29;20191;-72
2022/03/09 13:10:10;;;;;;;20.13;14.93;;;23.90;26.30;;;;;;4934382;29;20648;-72
2022/03/09 13:12:47;;;;;;;18.75;15.25;;;24.60;25.80;;;;;;4934097;29;20217;-72
2022/03/09 13:15:13;;;;;;;19.45;15.82;;;23.30;26.50;;;;;;4934287;29;20312;-71
2022/03/09 13:17:47;;;;;;;20.92;16.95;;;24.70;26.20;;;;;;4932775;29;20290;-71
2022/03/09 13:20:14;;;;;;;21.25;16.75;;;23.90;26.00;;;;;;4932645;29;20677;-72
2022/03/09 13:23:00;;;;;;;19.20;15.63;;;23.30;26.60;;;;;;4915465;29;20662;-71
2022/03/09 13:25:31;;;;;;;18.73;15.55;;;23.30;26.90;;;;;;4914990;29;20226;-71
2022/03/09 13:28:07;;;;;;;21.70;16.77;;;23.10;26.60;;;;;;4922980;29;20377;-72
2022/03/09 13:30:33;;;;;;;22.67;17.17;;;23.00;27.30;;;;;;4932801;29;20185;-72
2022/03/09 13:33:12;;;;;;;21.83;16.52;;;22.70;27.70;;;;;;4933351;29;20182;-71
2022/03/09 13:35:52;;;;;;;19.40;15.30;;;21.80;28.20;;;;;;4932755;29;20296;-70
2022/03/09 13:38:29;;;;;;;21.08;17.08;;;21.10;28.90;;;;;;4926125;29;20688;-71
2022/03/09 13:41:04;;;;;;;20.13;15.45;;;20.80;29.10;;;;;;4921456;29;20218;-71
2022/03/09 13:43:32;;;;;;;22.17;16.63;;;21.70;28.40;;;;;;4914426;29;20185;-71
2022/03/09 13:46:15;;;;;;;23.73;17.07;;;20.50;28.90;;;;;;4914146;29;20584;-70
2022/03/09 13:48:41;;;;;;;21.17;16.43;;;19.50;29.80;;;;;;4914393;29;20242;-71
2022/03/09 13:51:07;;;;;;;19.90;15.60;;;19.20;28.90;;;;;;4930922;29;20189;-70
2022/03/09 13:53:37;;;;;;;19.13;15.73;;;19.00;30.00;;;;;;4936072;29;20621;-71
2022/03/09 13:56:16;;;;;;;20.33;15.87;;;19.40;29.70;;;;;;4932064;29;20198;-70
2022/03/09 13:58:42;;;;;;;19.27;14.53;;;18.80;30.80;;;;;;4918048;29;20245;-70
2022/03/09 14:01:11;;;;;;;19.97;15.43;;;18.00;31.60;;;;;;4931511;29;20253;-72
2022/03/09 14:03:41;;;;;;;19.83;14.70;;;18.30;31.30;;;;;;4933378;29;20202;-70
2022/03/09 14:06:20;;;;;;;21.20;14.10;;;18.30;30.70;;;;;;4932386;29;20210;-69
2022/03/09 14:08:48;;;;;;;20.33;15.13;;;18.50;31.40;;;;;;4933402;29;20217;-71
2022/03/09 14:11:18;;;;;;;19.23;14.77;;;18.10;31.60;;;;;;4927732;29;20191;-70
2022/03/09 14:14:03;;;;;;;18.00;13.77;;;17.20;32.30;;;;;;4932184;29;20205;-69
2022/03/09 14:16:31;;;;;;;20.40;14.50;;;18.40;30.80;;;;;;4933262;29;20213;-70
2022/03/09 14:18:57;;;;;;;19.90;14.00;;;19.10;30.00;;;;;;4932394;29;20654;-70
2022/03/09 14:21:23;;;;;;;19.10;14.70;;;19.60;29.30;;;;;;4931361;29;20233;-70
2022/03/09 14:23:53;;;;;;;19.67;14.10;;;19.60;29.80;;;;;;4912043;29;20625;-70
2022/03/09 14:26:20;;;;;;;21.40;15.17;;;19.00;30.20;;;;;;4914757;29;20624;-70
2022/03/09 14:28:46;;;;;;;19.10;14.67;;;18.90;30.80;;;;;;4912902;29;20183;-71
2022/03/09 14:31:12;;;;;;;19.13;14.77;;;18.50;30.30;;;;;;4914994;29;20195;-71
2022/03/09 14:33:37;;;;;;;20.73;15.10;;;18.60;30.20;;;;;;4931433;29;20210;-70
2022/03/09 14:36:06;;;;;;;18.50;15.00;;;18.50;31.60;;;;;;4934325;29;20202;-69
2022/03/09 14:38:34;;;;;;;21.03;15.07;;;18.20;31.90;;;;;;4934196;29;20259;-71
2022/03/09 14:41:00;;;;;;;23.83;15.80;;;17.80;32.90;;;;;;4934368;29;20206;-70
2022/03/09 14:43:26;;;;;;;22.83;14.97;;;17.40;34.10;;;;;;4935481;29;20175;-70
2022/03/09 14:45:53;;;;;;;20.70;14.53;;;17.40;33.20;;;;;;4935747;29;20202;-70
2022/03/09 14:48:20;;;;;;;19.50;14.37;;;18.10;32.70;;;;;;4937082;29;20179;-71
2022/03/09 14:50:46;;;;;;;20.33;14.60;;;18.40;32.30;;;;;;4930121;29;20242;-70
2022/03/09 14:53:13;;;;;;;22.97;14.07;;;18.80;30.30;;;;;;4920495;29;20274;-70
2022/03/09 14:55:39;;;;;;;19.60;14.37;;;19.80;29.40;;;;;;4934929;29;20293;-70
2022/03/09 14:58:05;;;;;;;26.27;14.90;;;20.50;29.40;;;;;;4934569;29;20263;-71
2022/03/09 15:00:31;;;;;;;20.10;14.07;;;21.50;28.70;;;;;;4936476;29;20222;-70
2022/03/09 15:02:56;;;;;;;27.00;16.23;;;21.30;28.70;;;;;;4936630;29;20253;-71
2022/03/09 15:05:22;;;;;;;24.33;15.27;;;20.80;29.30;;;;;;4935383;29;20206;-71
2022/03/09 15:07:48;;;;;;;19.97;15.50;;;20.10;28.70;;;;;;4934593;29;20182;-70
2022/03/09 15:10:14;;;;;;;20.20;15.83;;;19.30;29.80;;;;;;4927651;29;20190;-71
2022/03/09 15:12:39;;;;;;;20.47;16.10;;;19.10;29.60;;;;;;4924242;29;20277;-72
2022/03/09 15:15:06;;;;;;;22.70;15.67;;;18.50;30.00;;;;;;4931715;29;20309;-71
2022/03/09 15:17:32;;;;;;;22.73;16.07;;;17.60;31.00;;;;;;4935867;29;20761;-72
2022/03/09 15:19:59;;;;;;;27.37;16.07;;;16.60;33.70;;;;;;4935008;29;20244;-71
2022/03/09 15:22:24;;;;;;;21.53;15.27;;;15.90;35.20;;;;;;4937025;29;20233;-72
2022/03/09 15:24:50;;;;;;;23.87;17.00;;;15.60;36.00;;;;;;4936051;29;20206;-71
2022/03/09 15:27:16;;;;;;;26.67;18.73;;;15.20;37.80;;;;;;4935816;29;20179;-70
2022/03/09 15:29:42;;;;;;;26.50;18.70;;;14.90;36.60;;;;;;4935814;29;20186;-71
2022/03/09 15:32:08;;;;;;;26.07;19.40;;;14.70;37.60;;;;;;4936195;29;20576;-71
2022/03/09 15:34:34;;;;;;;22.80;17.20;;;14.60;39.10;;;;;;4935611;29;20628;-71
2022/03/09 15:37:00;;;;;;;27.93;17.97;;;14.50;37.40;;;;;;4935658;29;20322;-71
2022/03/09 15:39:27;;;;;;;27.20;19.27;;;14.20;39.20;;;;;;4935677;29;20225;-71
2022/03/09 15:41:53;;;;;;;21.30;17.07;;;14.20;39.30;;;;;;4936039;29;20711;-71
2022/03/09 15:44:19;;;;;;;22.43;17.53;;;14.70;37.80;;;;;;4934215;29;20213;-71
2022/03/09 15:46:45;;;;;;;22.20;16.93;;;15.00;36.90;;;;;;4935544;29;20552;-69
2022/03/09 15:49:11;;;;;;;22.50;17.67;;;15.10;36.00;;;;;;4935639;29;20610;-71
2022/03/09 15:51:37;;;;;;;23.90;17.53;;;15.20;36.50;;;;;;4935489;29;20242;-71
2022/03/09 15:54:03;;;;;;;23.17;18.33;;;15.00;36.60;;;;;;4933383;29;20191;-71
2022/03/09 15:56:31;;;;;;;24.23;18.17;;;14.90;37.10;;;;;;4935370;29;20329;-73
2022/03/09 15:58:57;;;;;;;22.00;17.70;;;14.70;37.00;;;;;;4933926;29;20182;-71
2022/03/09 16:01:23;;;;;;;21.90;18.37;;;14.50;36.60;;;;;;4935440;29;20261;-71
2022/03/09 16:03:49;;;;;;;28.47;19.40;;;14.50;37.10;;;;;;4936138;29;20674;-71
2022/03/09 16:06:14;;;;;;;26.80;21.53;;;14.50;37.10;;;;;;4935008;29;20178;-71
2022/03/09 16:08:40;;;;;;;26.67;19.47;;;14.50;37.20;;;;;;4935328;29;20275;-71
2022/03/09 16:11:06;;;;;;;23.47;17.23;;;15.00;36.90;;;;;;4934118;29;20186;-71
2022/03/09 16:13:32;;;;;;;23.80;17.60;;;15.60;36.30;;;;;;4935069;29;20191;-70
2022/03/09 16:15:59;;;;;;;25.77;17.10;;;15.70;36.10;;;;;;4955065;23;20317;-75
2022/03/09 16:18:25;;;;;;;23.90;17.37;;;15.50;35.60;;;;;;4934543;29;20186;-75
2022/03/09 16:20:51;;;;;;;25.33;17.43;;;15.20;35.90;;;;;;4935243;29;20210;-75
2022/03/09 16:23:18;;;;;;;23.83;17.80;;;15.10;36.70;;;;;;4935033;29;20561;-75
2022/03/09 16:25:43;;;;;;;24.20;18.40;;;15.60;36.40;;;;;;4927547;29;20203;-75
2022/03/09 16:28:09;;;;;;;23.60;16.93;;;15.80;35.90;;;;;;4912140;29;20246;-75
2022/03/09 16:30:36;;;;;;;29.73;18.33;;;16.10;35.30;;;;;;4912256;29;20187;-75
2022/03/09 16:33:01;;;;;;;23.53;17.57;;;15.90;35.80;;;;;;4913743;29;20206;-75
2022/03/09 16:35:28;;;;;;;26.60;19.13;;;16.00;35.60;;;;;;4915056;29;20250;-75